Latest Coastal Weather Observations for Wynyard

IDV60701

Issued at 6:15 pm EST Monday 1 September 2014 (issued every 10 minutes, with the page automatically refreshed every 10 minutes)

About coastal observations | Map of coastal stations | Coastal observations for VIC | Marine services | Other Formats
Station Details ID: 091107 Name: WYNYARD AIRPORT Lat: -41.00 Lon: 145.73 Height: 12.0 m
Data from the previous 72 hours. | See also: Recent months at Wynyard
Date/Time
EST
Temp

°C
Wind Pressure Rain
since 9am
mm
Weather Cloud Vis
km
Sea
Height
m
Swell
Dir
 
Speed
knots
Gust
knots
hPa Trend Height
m
Period
s
Dir
01/06:00pm 10.7 WSW 12 16 1006.1 - 5.6 - - 10 - - - -
01/05:30pm 11.6 SW 8 11 1005.5 - 5.6 - - 10 - - - -
01/05:00pm 12.6 WSW 9 13 1005.1 - 5.6 - - 10 - - - -
01/04:30pm 12.7 WSW 11 14 1004.7 - 5.6 - Partly cloudy 10 - - - -
01/04:00pm 13.0 WSW 10 13 1004.3 - 5.6 - Cloudy 6 - - - -
01/03:30pm 13.4 WSW 10 14 1004.0 - 5.6 - Partly cloudy 6 - - - -
01/03:00pm 13.3 WSW 12 18 1003.7 - 5.6 - Partly cloudy 6 - - - -
01/02:30pm 13.7 WSW 9 12 1003.5 - 5.6 - Partly cloudy 6 - - - -
01/02:00pm 13.2 WSW 12 15 1003.5 - 5.6 - Partly cloudy 7 - - - -
01/01:30pm 13.4 W 8 12 1003.4 - 5.6 - Partly cloudy 10 - - - -
01/01:00pm 12.9 WNW 8 10 1003.4 - 5.6 - Cloudy 10 - - - -
01/12:30pm 12.5 NW 8 10 1003.6 - 5.6 - Cloudy 10 - - - -
01/12:00pm 12.7 W 8 10 1003.6 - 5.6 Rain Partly cloudy 7 - - - -
01/11:47am 12.6 WNW 9 12 1003.6 - 5.2 - Partly cloudy 8 - - - -
01/11:30am 12.6 NW 11 15 1003.4 - 4.8 - Partly cloudy 8 - - - -
01/11:08am 12.5 NW 10 16 1003.7 - 4.6 - Partly cloudy 8 - - - -
01/11:00am 12.4 NNW 11 15 1003.8 - 4.4 - Partly cloudy 9 - - - -
01/10:55am 12.3 NW 12 18 1003.9 - 4.4 - Partly cloudy 9 - - - -
01/10:49am 12.3 NW 13 18 1003.9 - 4.4 - Partly cloudy 9 - - - -
01/10:30am 12.4 NNW 11 16 1004.0 - 3.6 - Partly cloudy 3 - - - -
01/10:18am 12.7 NNW 9 11 1004.2 - 1.6 - Partly cloudy 5 - - - -
01/10:14am 12.8 NNW 10 16 1004.2 - 1.4 - Partly cloudy 8 - - - -
01/10:04am 12.8 NNW 11 17 1004.2 - 1.2 - Cloudy 10 - - - -
01/10:00am 12.9 NNW 11 17 1004.3 - 1.2 - Cloudy 10 - - - -
01/09:47am 12.8 NNW 13 19 1004.7 - 1.2 - Partly cloudy 9 - - - -
01/09:30am 12.9 NNW 13 21 1005.0 - 0.6 - Partly cloudy 8 - - - -
01/09:00am 12.9 NNW 9 15 1004.9 - 3.4 Rain Cloudy 10 - - - -
01/08:30am 13.1 NNW 10 15 1005.2 - 2.6 - Partly cloudy 8 - - - -
01/08:00am 13.2 NNW 6 10 1005.3 - 2.2 - Partly cloudy 10 - - - -
01/07:30am 13.2 N 6 9 1005.3 - 2.0 - Partly cloudy 10 - - - -
01/07:00am 11.9 E 2 5 1005.7 - 1.6 - Partly cloudy 10 - - - -
01/06:30am 12.1 NE 4 6 1005.7 - 1.4 - Partly cloudy 10 - - - -
01/06:00am 11.5 ESE 3 5 1005.6 - 1.4 Recent precip. Mostly cloudy 10 - - - -
01/05:30am 11.7 NE 3 5 1006.2 - 1.2 - Partly cloudy 10 - - - -
01/05:00am 11.1 CALM 0 3 1006.1 - 1.2 - Partly cloudy 9 - - - -
01/04:30am 11.1 WNW 2 5 1006.5 - 1.0 - Partly cloudy 10 - - - -
01/04:00am 11.2 ENE 4 6 1006.6 - 1.0 - Partly cloudy 10 - - - -
01/03:30am 11.2 SSE 1 3 1006.8 - 1.0 - Partly cloudy 10 - - - -
01/03:00am 11.5 SSE 5 7 1007.5 - 0.6 - Cloudy 10 - - - -
01/02:30am 11.8 SE 3 5 1007.9 - 0.6 - Partly cloudy 10 - - - -
01/02:00am 12.2 SE 8 11 1008.3 - 0.6 - Partly cloudy 10 - - - -
01/01:30am 12.3 SE 6 8 1008.6 - 0.6 - Partly cloudy 10 - - - -
01/01:00am 12.3 SE 8 11 1008.9 - 0.6 - Partly cloudy 10 - - - -
01/12:30am 12.2 E 14 19 1008.6 - 0.4 - Partly cloudy 10 - - - -
01/12:00am 12.2 E 10 15 1009.3 - 0.4 Recent precip. Cloudy 10 - - - -
 
Date/Time
EST
Temp

°C
Wind Pressure Rain
since 9am
mm
Weather Cloud Vis
km
Sea
Height
m
Swell
Dir
 
Speed
knots
Gust
knots
hPa Trend Height
m
Period
s
Dir
31/11:30pm 12.3 E 10 13 1009.7 - 0.4 - Partly cloudy 10 - - - -
31/11:00pm 12.3 ESE 10 13 1010.5 - 0.2 - Partly cloudy 10 - - - -
31/10:30pm 12.5 E 10 13 1011.3 - 0.0 - Partly cloudy 10 - - - -
31/10:00pm 12.3 E 9 15 1011.3 - 0.0 - Partly cloudy 10 - - - -
31/09:30pm 12.2 E 10 13 1011.2 - 0.0 - Partly cloudy 10 - - - -
31/09:00pm 12.0 ESE 9 13 1011.8 - 0.0 - Cloudy 10 - - - -
31/08:30pm 11.9 ESE 9 11 1012.2 - 0.0 - Partly cloudy 10 - - - -
31/08:00pm 12.2 ESE 10 12 1012.4 - 0.0 - Partly cloudy 10 - - - -
31/07:57pm 12.1 ESE 10 13 1012.4 - 0.0 - Partly cloudy 10 - - - -
31/07:30pm 12.3 ESE 10 14 1012.5 - 0.0 - Partly cloudy 10 - - - -
31/07:00pm 12.3 E 11 14 1012.7 - 0.0 - Cloudy 10 - - - -
31/06:30pm 12.4 E 9 15 1012.7 - 0.0 - Cloudy 10 - - - -
31/06:00pm 12.4 E 10 14 1012.7 - 0.0 - Cloudy 10 - - - -
31/05:30pm 12.5 E 8 11 1013.0 - 0.0 - Partly cloudy 10 - - - -
31/05:08pm 12.7 E 8 12 1013.1 - 0.0 - Partly cloudy 10 - - - -
31/05:00pm 12.7 E 8 12 1013.0 - 0.0 - Partly cloudy 10 - - - -
31/04:47pm 12.8 E 9 12 1013.0 - 0.0 - Partly cloudy 10 - - - -
31/04:30pm 13.0 E 8 11 1013.1 - 0.0 - Partly cloudy 10 - - - -
31/04:00pm 13.0 E 9 13 1013.3 - 0.0 - Partly cloudy 10 - - - -
31/03:30pm 13.6 E 9 14 1013.6 - 0.0 - Cloudy 10 - - - -
31/03:00pm 13.4 E 9 14 1014.0 - 0.0 - Mostly cloudy 10 - - - -
31/02:30pm 13.5 E 10 14 1014.1 - 0.0 - Partly cloudy 10 - - - -
31/02:00pm 13.4 E 10 15 1014.9 - 0.0 - Partly cloudy 10 - - - -
31/01:44pm 13.5 E 9 12 1015.2 - 0.0 - Partly cloudy 10 - - - -
31/01:42pm 13.7 E 9 12 1015.2 - 0.0 - Partly cloudy 10 - - - -
31/01:30pm 13.4 E 11 14 1015.5 - 0.0 - Partly cloudy 10 - - - -
31/01:00pm 13.8 E 9 13 1015.5 - 0.0 - Cloudy 10 - - - -
31/12:30pm 13.4 E 11 15 1015.8 - 0.0 - Cloudy 10 - - - -
31/12:00pm 13.1 E 11 14 1016.5 - 0.0 - Cloudy 10 - - - -
31/11:30am 13.1 E 10 15 1017.1 - 0.0 - Partly cloudy 10 - - - -
31/11:00am 12.8 E 11 14 1017.3 - 0.0 - Partly cloudy 10 - - - -
31/10:30am 12.4 E 12 17 1017.6 - 0.0 - Partly cloudy 10 - - - -
31/10:00am 12.6 E 8 15 1018.0 - 0.0 - Partly cloudy 10 - - - -
31/09:30am 12.3 E 10 13 1018.4 - 0.0 - Partly cloudy 10 - - - -
31/09:00am 12.2 ESE 11 15 1018.5 - 0.0 - Cloudy 10 - - - -
31/08:30am 12.0 ESE 12 16 1018.7 - 0.0 - Partly cloudy 10 - - - -
31/08:00am 11.8 ESE 12 16 1018.7 - 0.0 - Partly cloudy 10 - - - -
31/07:37am 11.7 ESE 11 15 1018.8 - 0.0 - Partly cloudy 10 - - - -
31/07:30am 11.6 ESE 11 15 1018.8 - 0.0 - Partly cloudy 10 - - - -
31/07:00am 11.6 E 10 13 1018.9 - 0.0 - Partly cloudy 10 - - - -
31/06:30am 11.5 E 11 17 1018.9 - 0.0 - Partly cloudy 10 - - - -
31/06:00am 11.5 ESE 11 15 1018.9 - 0.0 - Cloudy 10 - - - -
31/05:30am 11.5 E 10 15 1018.7 - 0.0 - Cloudy 10 - - - -
31/05:00am 11.5 E 11 14 1018.9 - 0.0 - Partly cloudy 10 - - - -
31/04:30am 11.5 ESE 11 14 1019.1 - 0.0 - Partly cloudy 10 - - - -
31/04:00am 11.4 E 9 15 1019.0 - 0.0 - Cloudy 10 - - - -
31/03:30am 11.5 E 9 12 1019.7 - 0.0 - Partly cloudy 10 - - - -
31/03:00am 11.4 E 11 14 1019.9 - 0.0 - Cloudy 10 - - - -
31/02:30am 11.6 E 9 13 1020.3 - 0.0 - Partly cloudy 10 - - - -
31/02:00am 11.6 E 11 13 1021.0 - 0.0 - Partly cloudy 10 - - - -
31/01:30am 11.5 E 8 11 1021.3 - 0.0 - Partly cloudy 10 - - - -
31/01:00am 11.6 ESE 10 12 1021.6 - 0.0 - Partly cloudy 10 - - - -
31/12:30am 11.6 ESE 10 13 1021.8 - 0.0 - Partly cloudy 10 - - - -
31/12:00am 11.7 ESE 10 14 1021.9 - 0.0 - Cloudy 10 - - - -
 
Date/Time
EST
Temp

°C
Wind Pressure Rain
since 9am
mm
Weather Cloud Vis
km
Sea
Height
m
Swell
Dir
 
Speed
knots
Gust
knots
hPa Trend Height
m
Period
s
Dir
30/11:30pm 11.6 ESE 11 15 1021.9 - 0.0 - Partly cloudy 10 - - - -
30/11:00pm 11.3 ESE 9 14 1022.2 - 0.0 - Partly cloudy 10 - - - -
30/10:43pm 11.1 ESE 9 12 1022.6 - 0.0 - Partly cloudy 10 - - - -
30/10:33pm 11.1 ESE 9 12 1022.7 - 0.0 - Partly cloudy 10 - - - -
30/10:30pm 11.1 ESE 9 12 1022.8 - 0.0 - Partly cloudy 10 - - - -
30/10:00pm 11.2 ESE 8 10 1023.4 - 0.0 - Cloudy 10 - - - -
30/09:30pm 11.1 ESE 7 9 1023.6 - 0.0 - Cloudy 10 - - - -
30/09:00pm 10.7 ESE 8 11 1023.7 - 0.0 - Mostly cloudy 10 - - - -
30/08:30pm 10.1 SE 7 10 1023.8 - 0.0 - - 10 - - - -
30/08:00pm 11.0 E 10 12 1023.8 - 0.0 - - 10 - - - -
30/07:30pm 11.1 E 9 13 1023.8 - 0.0 - - 10 - - - -
30/07:00pm 10.9 E 8 10 1023.7 - 0.0 - - 10 - - - -
30/06:30pm 11.1 E 8 12 1023.7 - 0.0 - - 10 - - - -
30/06:00pm 11.0 E 7 9 1023.9 - 0.0 - - 10 - - - -
30/05:30pm 11.8 E 8 12 1023.9 - 0.0 - - 10 - - - -
30/05:00pm 12.4 E 8 13 1024.0 - 0.0 - Partly cloudy 10 - - - -
30/04:30pm 12.5 E 8 12 1024.4 - 0.0 - Partly cloudy 10 - - - -
30/04:00pm 13.4 E 9 13 1024.6 - 0.0 - Partly cloudy 10 - - - -
30/03:30pm 13.4 ENE 9 12 1024.8 - 0.0 - Partly cloudy 10 - - - -
30/03:00pm 13.1 ENE 10 14 1024.9 - 0.0 - Partly cloudy 10 - - - -
30/02:39pm 13.4 ENE 9 13 1025.0 - 0.0 - Partly cloudy 10 - - - -
30/02:30pm 13.6 E 9 14 1025.1 - 0.0 - Partly cloudy 10 - - - -
30/02:00pm 13.3 E 11 15 1025.4 - 0.0 - Partly cloudy 10 - - - -
30/01:56pm 13.4 E 10 15 1025.5 - 0.0 - Partly cloudy 10 - - - -
30/01:30pm 13.7 E 9 14 1025.6 - 0.0 - Partly cloudy 10 - - - -
30/01:00pm 14.7 E 9 15 1026.0 - 0.0 - Partly cloudy 10 - - - -
30/12:31pm 13.3 E 10 14 1026.4 - 0.0 - Partly cloudy 10 - - - -
30/12:30pm 13.0 E 11 14 1026.4 - 0.0 - Partly cloudy 10 - - - -
30/12:04pm 13.7 E 12 15 1026.9 - 0.0 - Partly cloudy 10 - - - -
30/12:00pm 13.3 E 11 15 1026.9 - 0.0 - Cloudy 10 - - - -
30/11:30am 13.1 E 11 15 1027.3 - 0.0 - Partly cloudy 10 - - - -
30/11:00am 13.8 E 10 15 1027.5 - 0.0 - Partly cloudy 10 - - - -
30/10:30am 13.0 E 10 15 1027.8 - 0.0 - Partly cloudy 10 - - - -
30/10:00am 13.0 E 10 14 1028.2 - 0.0 - Cloudy 10 - - - -
30/09:30am 12.4 E 10 14 1028.4 - 0.0 - Partly cloudy 10 - - - -
30/09:00am 11.9 E 10 14 1028.7 - 0.0 - Mostly cloudy 10 - - - -
30/08:43am 11.7 E 9 12 1028.9 - 0.0 - Partly cloudy 10 - - - -
30/08:30am 9.9 SW 2 4 1029.0 - 0.0 - Partly cloudy 10 - - - -
30/08:08am 8.7 WNW 3 4 1029.2 - 0.0 - Partly cloudy 10 - - - -
30/08:00am 8.2 WNW 4 4 1029.2 - 0.0 - Partly cloudy 10 - - - -
30/07:45am 7.8 WNW 4 5 1029.2 - 0.0 - Partly cloudy 10 - - - -
30/07:30am 7.0 W 4 5 1029.2 - 0.0 - Partly cloudy 10 - - - -
30/07:00am 6.1 NW 3 5 1028.9 - 0.0 - Cloudy 10 - - - -
30/06:30am 6.2 W 5 6 1028.9 - 0.0 - Cloudy 10 - - - -
30/06:00am 5.9 WNW 4 5 1028.7 - 0.0 - Mostly cloudy 10 - - - -
30/05:30am 4.5 W 5 5 1028.6 - 0.0 - Cloudy 10 - - - -
30/05:08am 3.8 WNW 5 6 1028.5 - 0.0 - Partly cloudy 10 - - - -
30/05:00am 3.6 WNW 5 5 1028.5 - 0.0 - Partly cloudy 10 - - - -
30/04:30am 3.2 W 6 6 1028.6 - 0.0 - - 10 - - - -
30/04:00am 3.5 WNW 5 6 1028.5 - 0.0 - - 10 - - - -
30/03:30am 4.1 WNW 5 6 1028.7 - 0.0 - - 10 - - - -
30/03:00am 3.7 W 5 6 1028.9 - 0.0 - - 10 - - - -
30/02:47am 3.5 W 5 6 1029.0 - 0.0 - - 10 - - - -
30/02:30am 3.5 W 5 5 1029.1 - 0.0 - - 3 - - - -
30/02:22am 3.9 W 4 5 1029.2 - 0.0 - - 5 - - - -
30/02:00am 3.9 W 5 5 1029.4 - 0.0 - - 9 - - - -
30/01:30am 4.6 W 4 4 1029.6 - 0.0 - - 10 - - - -
30/01:00am 4.2 W 4 5 1029.9 - 0.0 - - 10 - - - -
30/12:40am 4.7 W 4 5 1029.8 - 0.0 - - 8 - - - -
30/12:30am 5.0 W 4 5 1029.8 - 0.0 - - 5 - - - -
30/12:27am 4.3 W 4 5 1029.8 - 0.0 - - 5 - - - -
30/12:00am 5.7 W 5 5 1029.9 - 0.0 - - 10 - - - -
 
Date/Time
EST
Temp

°C
Wind Pressure Rain
since 9am
mm
Weather Cloud Vis
km
Sea
Height
m
Swell
Dir
 
Speed
knots
Gust
knots
hPa Trend Height
m
Period
s
Dir
29/11:48pm 5.0 W 4 4 1029.9 - 0.0 - - 9 - - - -
29/11:30pm 5.4 W 4 5 1029.9 - 0.0 - - 2 - - - -
29/11:00pm 5.8 W 5 5 1029.8 - 0.0 - - 5 - - - -
29/10:36pm 7.0 WNW 4 5 1029.9 - 0.0 - - 5 - - - -
29/10:30pm 7.1 WSW 4 4 1029.9 - 0.0 - - 10 - - - -
29/10:00pm 5.7 SW 5 6 1030.1 - 0.0 - - 10 - - - -
29/09:40pm 6.5 SW 5 6 1030.0 - 0.0 - - 5 - - - -
29/09:30pm 6.4 WSW 4 4 1030.0 - 0.0 - - 10 - - - -
29/09:04pm 7.0 SW 4 5 1029.9 - 0.0 - - 10 - - - -
29/09:00pm 7.9 SW 4 5 1029.9 - 0.0 - - 10 - - - -
29/08:51pm 7.5 SW 5 6 1029.8 - 0.0 - - 5 - - - -
29/08:39pm 7.9 SSW 5 6 1029.8 - 0.0 - - 10 - - - -
29/08:30pm 7.7 S 1 5 1029.8 - 0.0 - - 6 - - - -
29/08:24pm 8.1 CALM 0 0 1029.7 - 0.0 - - 5 - - - -
29/08:05pm 8.6 CALM 0 0 1029.7 - 0.0 - - 10 - - - -
29/08:00pm 9.4 CALM 0 3 1029.7 - 0.0 - - 10 - - - -
29/07:47pm 9.2 CALM 0 0 1029.7 - 0.0 - Partly cloudy 5 - - - -
29/07:30pm 9.6 S 3 4 1029.6 - 0.0 - Partly cloudy 10 - - - -
29/07:00pm 11.5 CALM 0 0 1029.5 - 0.0 - Partly cloudy 10 - - - -
29/06:30pm 11.8 CALM 0 0 1029.5 - 0.0 - Cloudy 10 - - - -

Other Formats:

Comma delimited format used in spreadsheet applications
http://www.bom.gov.au/fwo/IDV60701/IDV60701.95957.axf

JavaScript Object Notation format (JSON) in row-major order
http://www.bom.gov.au/fwo/IDV60701/IDV60701.95957.json